sensor_id;sensor_type;location;lat;lon;timestamp;P1;durP1;ratioP1;P2;durP2;ratioP2
73130;SDS011;64204;13.766;100.702;2022-12-04T00:01:16;8.23;;;4.50;;
73130;SDS011;64204;13.766;100.702;2022-12-04T00:03:44;10.30;;;5.03;;
73130;SDS011;64204;13.766;100.702;2022-12-04T00:06:14;11.68;;;5.78;;
73130;SDS011;64204;13.766;100.702;2022-12-04T00:08:42;11.30;;;5.78;;
73130;SDS011;64204;13.766;100.702;2022-12-04T00:11:10;9.95;;;4.72;;
73130;SDS011;64204;13.766;100.702;2022-12-04T00:13:38;10.57;;;4.95;;
73130;SDS011;64204;13.766;100.702;2022-12-04T00:16:05;11.57;;;5.22;;
73130;SDS011;64204;13.766;100.702;2022-12-04T00:18:33;9.88;;;5.47;;
73130;SDS011;64204;13.766;100.702;2022-12-04T00:21:04;8.18;;;4.80;;
73130;SDS011;64204;13.766;100.702;2022-12-04T00:23:32;9.98;;;5.05;;
73130;SDS011;64204;13.766;100.702;2022-12-04T00:26:01;10.90;;;5.03;;
73130;SDS011;64204;13.766;100.702;2022-12-04T00:28:30;9.82;;;5.30;;
73130;SDS011;64204;13.766;100.702;2022-12-04T00:30:57;8.65;;;4.43;;
73130;SDS011;64204;13.766;100.702;2022-12-04T00:33:24;12.75;;;5.35;;
73130;SDS011;64204;13.766;100.702;2022-12-04T00:36:00;14.07;;;4.80;;
73130;SDS011;64204;13.766;100.702;2022-12-04T00:38:29;11.73;;;3.95;;
73130;SDS011;64204;13.766;100.702;2022-12-04T00:40:55;11.27;;;4.22;;
73130;SDS011;64204;13.766;100.702;2022-12-04T00:43:22;9.57;;;4.07;;
73130;SDS011;64204;13.766;100.702;2022-12-04T00:45:49;9.18;;;3.95;;
73130;SDS011;64204;13.766;100.702;2022-12-04T00:48:16;10.30;;;3.88;;
73130;SDS011;64204;13.766;100.702;2022-12-04T00:50:43;8.02;;;4.03;;
73130;SDS011;64204;13.766;100.702;2022-12-04T00:53:10;12.52;;;4.10;;
73130;SDS011;64204;13.766;100.702;2022-12-04T00:55:37;6.90;;;4.03;;
73130;SDS011;64204;13.766;100.702;2022-12-04T00:58:04;7.78;;;4.03;;
73130;SDS011;64204;13.766;100.702;2022-12-04T01:00:33;7.70;;;3.13;;
73130;SDS011;64204;13.766;100.702;2022-12-04T01:03:00;8.90;;;3.75;;
73130;SDS011;64204;13.766;100.702;2022-12-04T01:05:27;6.78;;;3.60;;
73130;SDS011;64204;13.766;100.702;2022-12-04T01:07:55;8.30;;;3.70;;
73130;SDS011;64204;13.766;100.702;2022-12-04T01:10:21;9.05;;;4.00;;
73130;SDS011;64204;13.766;100.702;2022-12-04T01:12:49;9.75;;;3.65;;
73130;SDS011;64204;13.766;100.702;2022-12-04T01:15:18;11.90;;;4.47;;
73130;SDS011;64204;13.766;100.702;2022-12-04T01:20:11;7.80;;;3.63;;
73130;SDS011;64204;13.766;100.702;2022-12-04T01:22:39;8.13;;;3.60;;
73130;SDS011;64204;13.766;100.702;2022-12-04T01:25:06;12.68;;;3.88;;
73130;SDS011;64204;13.766;100.702;2022-12-04T01:27:33;6.95;;;3.63;;
73130;SDS011;64204;13.766;100.702;2022-12-04T01:30:00;7.13;;;3.53;;
73130;SDS011;64204;13.766;100.702;2022-12-04T01:32:27;7.70;;;3.38;;
73130;SDS011;64204;13.766;100.702;2022-12-04T01:34:54;6.55;;;3.40;;
73130;SDS011;64204;13.766;100.702;2022-12-04T01:37:20;7.25;;;3.60;;
73130;SDS011;64204;13.766;100.702;2022-12-04T01:39:48;5.65;;;3.45;;
73130;SDS011;64204;13.766;100.702;2022-12-04T01:42:14;8.23;;;3.38;;
73130;SDS011;64204;13.766;100.702;2022-12-04T01:44:42;5.53;;;2.70;;
73130;SDS011;64204;13.766;100.702;2022-12-04T01:47:29;7.03;;;3.45;;
73130;SDS011;64204;13.766;100.702;2022-12-04T01:49:55;7.65;;;3.30;;
73130;SDS011;64204;13.766;100.702;2022-12-04T01:52:24;5.75;;;3.65;;
73130;SDS011;64204;13.766;100.702;2022-12-04T01:54:56;7.20;;;3.53;;
73130;SDS011;64204;13.766;100.702;2022-12-04T01:57:25;5.22;;;2.70;;
73130;SDS011;64204;13.766;100.702;2022-12-04T01:59:58;4.43;;;2.80;;
73130;SDS011;64204;13.766;100.702;2022-12-04T02:02:39;8.77;;;2.75;;
73130;SDS011;64204;13.766;100.702;2022-12-04T02:05:10;5.43;;;2.63;;
73130;SDS011;64204;13.766;100.702;2022-12-04T02:07:41;5.57;;;2.38;;
73130;SDS011;64204;13.766;100.702;2022-12-04T02:10:10;5.63;;;2.50;;
73130;SDS011;64204;13.766;100.702;2022-12-04T02:15:34;9.10;;;2.78;;
73130;SDS011;64204;13.766;100.702;2022-12-04T02:24:13;5.05;;;3.10;;
73130;SDS011;64204;13.766;100.702;2022-12-04T02:27:19;5.40;;;2.53;;
73130;SDS011;64204;13.766;100.702;2022-12-04T02:30:11;6.07;;;2.63;;
73130;SDS011;64204;13.766;100.702;2022-12-04T02:32:46;5.97;;;2.65;;
73130;SDS011;64204;13.766;100.702;2022-12-04T02:35:33;5.88;;;2.53;;
73130;SDS011;64204;13.766;100.702;2022-12-04T02:38:07;6.15;;;2.20;;
73130;SDS011;64204;13.766;100.702;2022-12-04T02:43:44;6.72;;;2.63;;
73130;SDS011;64204;13.766;100.702;2022-12-04T02:46:20;5.35;;;2.63;;
73130;SDS011;64204;13.766;100.702;2022-12-04T02:48:52;6.22;;;2.53;;
73130;SDS011;64204;13.766;100.702;2022-12-04T02:51:22;8.43;;;2.92;;
73130;SDS011;64204;13.766;100.702;2022-12-04T02:53:54;6.40;;;2.92;;
73130;SDS011;64204;13.766;100.702;2022-12-04T02:56:24;6.82;;;2.83;;
73130;SDS011;64204;13.766;100.702;2022-12-04T02:58:56;7.07;;;2.92;;
73130;SDS011;64204;13.766;100.702;2022-12-04T03:01:33;7.30;;;3.05;;
73130;SDS011;64204;13.766;100.702;2022-12-04T03:06:51;4.90;;;2.78;;
73130;SDS011;64204;13.766;100.702;2022-12-04T03:09:24;6.55;;;3.03;;
73130;SDS011;64204;13.766;100.702;2022-12-04T03:14:54;4.15;;;2.45;;
73130;SDS011;64204;13.766;100.702;2022-12-04T03:17:26;4.82;;;2.28;;
73130;SDS011;64204;13.766;100.702;2022-12-04T03:19:57;8.27;;;2.05;;
73130;SDS011;64204;13.766;100.702;2022-12-04T03:22:26;3.72;;;1.80;;
73130;SDS011;64204;13.766;100.702;2022-12-04T03:24:54;5.25;;;1.73;;
73130;SDS011;64204;13.766;100.702;2022-12-04T03:27:28;4.13;;;1.73;;
73130;SDS011;64204;13.766;100.702;2022-12-04T03:30:17;4.40;;;1.85;;
73130;SDS011;64204;13.766;100.702;2022-12-04T03:32:51;3.20;;;1.70;;
73130;SDS011;64204;13.766;100.702;2022-12-04T03:38:38;2.83;;;1.58;;
73130;SDS011;64204;13.766;100.702;2022-12-04T03:44:26;3.58;;;2.05;;
73130;SDS011;64204;13.766;100.702;2022-12-04T03:47:04;6.10;;;1.70;;
73130;SDS011;64204;13.766;100.702;2022-12-04T03:49:58;2.00;;;1.33;;
73130;SDS011;64204;13.766;100.702;2022-12-04T03:58:09;2.97;;;1.40;;
73130;SDS011;64204;13.766;100.702;2022-12-04T04:00:41;5.25;;;1.67;;
73130;SDS011;64204;13.766;100.702;2022-12-04T04:03:14;2.65;;;1.40;;
73130;SDS011;64204;13.766;100.702;2022-12-04T04:05:44;3.05;;;1.55;;
73130;SDS011;64204;13.766;100.702;2022-12-04T04:08:17;3.17;;;1.70;;
73130;SDS011;64204;13.766;100.702;2022-12-04T04:10:59;2.17;;;1.23;;
73130;SDS011;64204;13.766;100.702;2022-12-04T04:16:48;3.45;;;1.38;;
73130;SDS011;64204;13.766;100.702;2022-12-04T04:19:38;4.07;;;1.55;;
73130;SDS011;64204;13.766;100.702;2022-12-04T04:22:26;3.42;;;1.23;;
73130;SDS011;64204;13.766;100.702;2022-12-04T04:25:13;4.80;;;1.65;;
73130;SDS011;64204;13.766;100.702;2022-12-04T04:27:53;4.40;;;1.30;;
73130;SDS011;64204;13.766;100.702;2022-12-04T04:30:26;3.80;;;1.60;;
73130;SDS011;64204;13.766;100.702;2022-12-04T04:35:50;3.17;;;1.95;;
73130;SDS011;64204;13.766;100.702;2022-12-04T04:38:21;4.90;;;1.65;;
73130;SDS011;64204;13.766;100.702;2022-12-04T04:40:59;2.42;;;1.52;;
73130;SDS011;64204;13.766;100.702;2022-12-04T04:43:39;2.63;;;1.23;;
73130;SDS011;64204;13.766;100.702;2022-12-04T04:49:00;3.83;;;1.30;;
73130;SDS011;64204;13.766;100.702;2022-12-04T04:51:28;3.25;;;1.20;;
73130;SDS011;64204;13.766;100.702;2022-12-04T04:54:06;2.78;;;1.33;;
73130;SDS011;64204;13.766;100.702;2022-12-04T04:56:41;2.22;;;1.30;;
73130;SDS011;64204;13.766;100.702;2022-12-04T04:59:10;2.88;;;1.60;;
73130;SDS011;64204;13.766;100.702;2022-12-04T05:01:57;4.00;;;1.67;;
73130;SDS011;64204;13.766;100.702;2022-12-04T05:04:30;2.65;;;1.50;;
73130;SDS011;64204;13.766;100.702;2022-12-04T05:07:02;3.22;;;1.40;;
73130;SDS011;64204;13.766;100.702;2022-12-04T05:09:34;4.10;;;1.85;;
73130;SDS011;64204;13.766;100.702;2022-12-04T05:12:01;5.65;;;1.60;;
73130;SDS011;64204;13.766;100.702;2022-12-04T05:14:30;5.30;;;1.42;;
73130;SDS011;64204;13.766;100.702;2022-12-04T05:16:57;4.20;;;1.55;;
73130;SDS011;64204;13.766;100.702;2022-12-04T05:19:24;3.15;;;2.13;;
73130;SDS011;64204;13.766;100.702;2022-12-04T05:22:10;5.30;;;1.42;;
73130;SDS011;64204;13.766;100.702;2022-12-04T05:24:37;5.55;;;2.13;;
73130;SDS011;64204;13.766;100.702;2022-12-04T05:27:04;1.85;;;1.33;;
73130;SDS011;64204;13.766;100.702;2022-12-04T05:29:51;2.35;;;1.42;;
73130;SDS011;64204;13.766;100.702;2022-12-04T05:32:22;7.30;;;1.77;;
73130;SDS011;64204;13.766;100.702;2022-12-04T05:34:53;3.10;;;1.60;;
73130;SDS011;64204;13.766;100.702;2022-12-04T05:37:21;2.72;;;1.80;;
73130;SDS011;64204;13.766;100.702;2022-12-04T05:39:48;2.55;;;1.48;;
73130;SDS011;64204;13.766;100.702;2022-12-04T05:42:15;4.63;;;1.55;;
73130;SDS011;64204;13.766;100.702;2022-12-04T05:44:42;3.55;;;2.10;;
73130;SDS011;64204;13.766;100.702;2022-12-04T05:47:08;5.40;;;2.55;;
73130;SDS011;64204;13.766;100.702;2022-12-04T05:49:35;7.65;;;3.22;;
73130;SDS011;64204;13.766;100.702;2022-12-04T05:52:08;4.53;;;2.35;;
73130;SDS011;64204;13.766;100.702;2022-12-04T05:54:35;3.90;;;1.95;;
73130;SDS011;64204;13.766;100.702;2022-12-04T05:57:02;4.03;;;2.22;;
73130;SDS011;64204;13.766;100.702;2022-12-04T05:59:28;4.63;;;2.22;;
73130;SDS011;64204;13.766;100.702;2022-12-04T06:01:55;3.85;;;1.80;;
73130;SDS011;64204;13.766;100.702;2022-12-04T06:04:22;5.18;;;2.40;;
73130;SDS011;64204;13.766;100.702;2022-12-04T06:06:49;4.10;;;2.13;;
73130;SDS011;64204;13.766;100.702;2022-12-04T06:11:43;4.32;;;1.88;;
73130;SDS011;64204;13.766;100.702;2022-12-04T06:14:11;3.80;;;2.05;;
73130;SDS011;64204;13.766;100.702;2022-12-04T06:16:40;4.18;;;2.28;;
73130;SDS011;64204;13.766;100.702;2022-12-04T06:19:10;6.65;;;2.13;;
73130;SDS011;64204;13.766;100.702;2022-12-04T06:21:40;5.55;;;2.20;;
73130;SDS011;64204;13.766;100.702;2022-12-04T06:24:11;4.95;;;2.50;;
73130;SDS011;64204;13.766;100.702;2022-12-04T06:26:40;5.88;;;2.28;;
73130;SDS011;64204;13.766;100.702;2022-12-04T06:29:06;4.28;;;2.13;;
73130;SDS011;64204;13.766;100.702;2022-12-04T06:31:34;3.60;;;2.10;;
73130;SDS011;64204;13.766;100.702;2022-12-04T06:34:02;6.95;;;2.25;;
73130;SDS011;64204;13.766;100.702;2022-12-04T06:36:30;5.75;;;2.40;;
73130;SDS011;64204;13.766;100.702;2022-12-04T06:38:57;3.70;;;2.25;;
73130;SDS011;64204;13.766;100.702;2022-12-04T06:41:24;4.38;;;2.53;;
73130;SDS011;64204;13.766;100.702;2022-12-04T06:43:52;4.70;;;2.40;;
73130;SDS011;64204;13.766;100.702;2022-12-04T06:46:19;5.45;;;2.45;;
73130;SDS011;64204;13.766;100.702;2022-12-04T06:48:48;5.93;;;2.65;;
73130;SDS011;64204;13.766;100.702;2022-12-04T06:51:22;8.88;;;2.47;;
73130;SDS011;64204;13.766;100.702;2022-12-04T06:53:50;4.28;;;2.35;;
73130;SDS011;64204;13.766;100.702;2022-12-04T06:56:19;6.25;;;2.60;;
73130;SDS011;64204;13.766;100.702;2022-12-04T06:58:48;6.97;;;2.88;;
73130;SDS011;64204;13.766;100.702;2022-12-04T07:01:17;3.80;;;2.22;;
73130;SDS011;64204;13.766;100.702;2022-12-04T07:03:47;4.40;;;2.40;;
73130;SDS011;64204;13.766;100.702;2022-12-04T07:06:25;5.90;;;2.42;;
73130;SDS011;64204;13.766;100.702;2022-12-04T07:08:54;5.72;;;2.65;;
73130;SDS011;64204;13.766;100.702;2022-12-04T07:11:37;3.97;;;2.30;;
73130;SDS011;64204;13.766;100.702;2022-12-04T07:14:04;5.68;;;2.85;;
73130;SDS011;64204;13.766;100.702;2022-12-04T07:16:31;5.85;;;2.78;;
73130;SDS011;64204;13.766;100.702;2022-12-04T07:18:58;4.13;;;2.42;;
73130;SDS011;64204;13.766;100.702;2022-12-04T07:21:25;8.13;;;3.00;;
73130;SDS011;64204;13.766;100.702;2022-12-04T07:23:54;7.30;;;2.83;;
73130;SDS011;64204;13.766;100.702;2022-12-04T07:26:26;3.67;;;2.83;;
73130;SDS011;64204;13.766;100.702;2022-12-04T07:28:54;5.93;;;2.60;;
73130;SDS011;64204;13.766;100.702;2022-12-04T07:31:22;6.13;;;2.45;;
73130;SDS011;64204;13.766;100.702;2022-12-04T07:33:50;5.28;;;2.20;;
73130;SDS011;64204;13.766;100.702;2022-12-04T07:41:11;3.47;;;2.40;;
73130;SDS011;64204;13.766;100.702;2022-12-04T07:43:38;4.80;;;2.10;;
73130;SDS011;64204;13.766;100.702;2022-12-04T07:46:13;5.00;;;2.17;;
73130;SDS011;64204;13.766;100.702;2022-12-04T07:48:41;3.80;;;2.00;;
73130;SDS011;64204;13.766;100.702;2022-12-04T07:51:09;3.53;;;2.67;;
73130;SDS011;64204;13.766;100.702;2022-12-04T07:53:37;4.07;;;2.03;;
73130;SDS011;64204;13.766;100.702;2022-12-04T07:56:05;6.40;;;2.60;;
73130;SDS011;64204;13.766;100.702;2022-12-04T07:58:32;4.20;;;2.05;;
73130;SDS011;64204;13.766;100.702;2022-12-04T08:03:50;4.63;;;2.03;;
73130;SDS011;64204;13.766;100.702;2022-12-04T08:06:20;3.67;;;2.20;;
73130;SDS011;64204;13.766;100.702;2022-12-04T08:08:47;6.05;;;2.38;;
73130;SDS011;64204;13.766;100.702;2022-12-04T08:11:19;4.13;;;2.10;;
73130;SDS011;64204;13.766;100.702;2022-12-04T08:13:47;3.00;;;2.17;;
73130;SDS011;64204;13.766;100.702;2022-12-04T08:16:18;4.45;;;2.03;;
73130;SDS011;64204;13.766;100.702;2022-12-04T08:18:44;5.20;;;3.00;;
73130;SDS011;64204;13.766;100.702;2022-12-04T08:23:41;4.60;;;2.00;;
73130;SDS011;64204;13.766;100.702;2022-12-04T08:31:02;3.83;;;2.20;;
73130;SDS011;64204;13.766;100.702;2022-12-04T08:33:30;6.32;;;2.38;;
73130;SDS011;64204;13.766;100.702;2022-12-04T08:35:57;3.38;;;2.30;;
73130;SDS011;64204;13.766;100.702;2022-12-04T08:38:24;4.45;;;2.42;;
73130;SDS011;64204;13.766;100.702;2022-12-04T08:40:50;5.57;;;2.05;;
73130;SDS011;64204;13.766;100.702;2022-12-04T08:43:17;5.90;;;1.90;;
73130;SDS011;64204;13.766;100.702;2022-12-04T08:45:52;5.05;;;2.00;;
73130;SDS011;64204;13.766;100.702;2022-12-04T08:48:20;4.18;;;1.90;;
73130;SDS011;64204;13.766;100.702;2022-12-04T08:50:47;3.55;;;2.10;;
73130;SDS011;64204;13.766;100.702;2022-12-04T08:53:14;4.95;;;2.08;;
73130;SDS011;64204;13.766;100.702;2022-12-04T08:55:41;2.85;;;1.80;;
73130;SDS011;64204;13.766;100.702;2022-12-04T08:58:07;2.70;;;2.05;;
73130;SDS011;64204;13.766;100.702;2022-12-04T09:00:34;4.07;;;1.65;;
73130;SDS011;64204;13.766;100.702;2022-12-04T09:03:01;2.17;;;1.55;;
73130;SDS011;64204;13.766;100.702;2022-12-04T09:05:28;3.53;;;1.48;;
73130;SDS011;64204;13.766;100.702;2022-12-04T09:07:55;3.92;;;1.80;;
73130;SDS011;64204;13.766;100.702;2022-12-04T09:10:22;3.03;;;1.65;;
73130;SDS011;64204;13.766;100.702;2022-12-04T09:12:49;3.05;;;1.80;;
73130;SDS011;64204;13.766;100.702;2022-12-04T09:15:16;3.42;;;1.75;;
73130;SDS011;64204;13.766;100.702;2022-12-04T09:17:43;2.30;;;1.67;;
73130;SDS011;64204;13.766;100.702;2022-12-04T09:20:09;3.10;;;1.63;;
73130;SDS011;64204;13.766;100.702;2022-12-04T09:22:37;3.00;;;1.55;;
73130;SDS011;64204;13.766;100.702;2022-12-04T09:25:03;3.83;;;1.73;;
73130;SDS011;64204;13.766;100.702;2022-12-04T09:27:34;3.50;;;1.80;;
73130;SDS011;64204;13.766;100.702;2022-12-04T09:30:03;3.05;;;1.88;;
73130;SDS011;64204;13.766;100.702;2022-12-04T09:32:30;6.95;;;1.85;;
73130;SDS011;64204;13.766;100.702;2022-12-04T09:34:57;3.47;;;1.67;;
73130;SDS011;64204;13.766;100.702;2022-12-04T09:37:24;5.05;;;1.90;;
73130;SDS011;64204;13.766;100.702;2022-12-04T09:39:51;7.05;;;2.05;;
73130;SDS011;64204;13.766;100.702;2022-12-04T09:42:21;5.25;;;1.55;;
73130;SDS011;64204;13.766;100.702;2022-12-04T09:45:03;2.83;;;1.98;;
73130;SDS011;64204;13.766;100.702;2022-12-04T09:47:44;3.50;;;1.63;;
73130;SDS011;64204;13.766;100.702;2022-12-04T09:55:59;5.85;;;2.15;;
73130;SDS011;64204;13.766;100.702;2022-12-04T09:58:38;3.28;;;1.80;;
73130;SDS011;64204;13.766;100.702;2022-12-04T10:01:13;2.97;;;1.90;;
73130;SDS011;64204;13.766;100.702;2022-12-04T10:06:22;5.47;;;1.98;;
73130;SDS011;64204;13.766;100.702;2022-12-04T10:09:09;5.32;;;2.42;;
73130;SDS011;64204;13.766;100.702;2022-12-04T10:18:03;3.20;;;1.70;;
73130;SDS011;64204;13.766;100.702;2022-12-04T10:23:49;4.53;;;2.17;;
73130;SDS011;64204;13.766;100.702;2022-12-04T10:29:14;4.03;;;2.38;;
73130;SDS011;64204;13.766;100.702;2022-12-04T10:31:44;7.07;;;2.20;;
73130;SDS011;64204;13.766;100.702;2022-12-04T10:37:00;3.35;;;1.85;;
73130;SDS011;64204;13.766;100.702;2022-12-04T10:39:34;6.38;;;1.95;;
73130;SDS011;64204;13.766;100.702;2022-12-04T10:42:34;4.25;;;2.00;;
73130;SDS011;64204;13.766;100.702;2022-12-04T10:45:06;3.55;;;2.20;;
73130;SDS011;64204;13.766;100.702;2022-12-04T10:50:01;4.07;;;2.30;;
73130;SDS011;64204;13.766;100.702;2022-12-04T10:52:31;2.65;;;1.70;;
73130;SDS011;64204;13.766;100.702;2022-12-04T10:54:58;4.13;;;1.95;;
73130;SDS011;64204;13.766;100.702;2022-12-04T11:03:00;4.80;;;2.55;;
73130;SDS011;64204;13.766;100.702;2022-12-04T11:08:50;8.70;;;3.50;;
73130;SDS011;64204;13.766;100.702;2022-12-04T11:14:06;7.00;;;3.08;;
73130;SDS011;64204;13.766;100.702;2022-12-04T11:16:40;8.32;;;3.10;;
73130;SDS011;64204;13.766;100.702;2022-12-04T11:19:25;6.50;;;2.80;;
73130;SDS011;64204;13.766;100.702;2022-12-04T11:21:55;7.18;;;3.50;;
73130;SDS011;64204;13.766;100.702;2022-12-04T11:24:33;8.73;;;3.13;;
73130;SDS011;64204;13.766;100.702;2022-12-04T11:27:05;7.18;;;3.63;;
73130;SDS011;64204;13.766;100.702;2022-12-04T11:29:40;8.50;;;3.00;;
73130;SDS011;64204;13.766;100.702;2022-12-04T11:32:17;6.10;;;3.05;;
73130;SDS011;64204;13.766;100.702;2022-12-04T11:34:54;4.57;;;2.97;;
73130;SDS011;64204;13.766;100.702;2022-12-04T11:37:33;6.85;;;3.30;;
73130;SDS011;64204;13.766;100.702;2022-12-04T11:40:04;5.32;;;3.53;;
73130;SDS011;64204;13.766;100.702;2022-12-04T11:42:42;6.55;;;3.05;;
73130;SDS011;64204;13.766;100.702;2022-12-04T11:45:17;8.38;;;3.70;;
73130;SDS011;64204;13.766;100.702;2022-12-04T11:50:45;8.18;;;3.85;;
73130;SDS011;64204;13.766;100.702;2022-12-04T11:53:34;6.93;;;3.40;;
73130;SDS011;64204;13.766;100.702;2022-12-04T11:56:17;9.52;;;3.75;;
73130;SDS011;64204;13.766;100.702;2022-12-04T11:59:04;8.25;;;3.40;;
73130;SDS011;64204;13.766;100.702;2022-12-04T12:08:16;7.13;;;3.40;;
73130;SDS011;64204;13.766;100.702;2022-12-04T12:17:02;6.70;;;3.92;;
73130;SDS011;64204;13.766;100.702;2022-12-04T12:19:45;9.05;;;3.72;;
73130;SDS011;64204;13.766;100.702;2022-12-04T12:22:35;6.10;;;3.72;;
73130;SDS011;64204;13.766;100.702;2022-12-04T12:25:29;6.72;;;3.33;;
73130;SDS011;64204;13.766;100.702;2022-12-04T12:34:35;9.10;;;4.55;;
73130;SDS011;64204;13.766;100.702;2022-12-04T12:40:00;13.95;;;5.13;;
73130;SDS011;64204;13.766;100.702;2022-12-04T12:42:50;8.38;;;4.50;;
73130;SDS011;64204;13.766;100.702;2022-12-04T12:48:24;8.23;;;4.93;;
73130;SDS011;64204;13.766;100.702;2022-12-04T12:51:01;6.13;;;3.88;;
73130;SDS011;64204;13.766;100.702;2022-12-04T12:53:40;9.95;;;4.45;;
73130;SDS011;64204;13.766;100.702;2022-12-04T12:56:14;8.60;;;4.20;;
73130;SDS011;64204;13.766;100.702;2022-12-04T12:58:48;6.82;;;4.28;;
73130;SDS011;64204;13.766;100.702;2022-12-04T13:10:22;8.98;;;5.30;;
73130;SDS011;64204;13.766;100.702;2022-12-04T13:15:58;12.55;;;5.78;;
73130;SDS011;64204;13.766;100.702;2022-12-04T13:30:37;7.10;;;4.75;;
73130;SDS011;64204;13.766;100.702;2022-12-04T13:33:31;8.73;;;5.15;;
73130;SDS011;64204;13.766;100.702;2022-12-04T13:39:20;7.07;;;4.85;;
73130;SDS011;64204;13.766;100.702;2022-12-04T13:44:57;8.85;;;5.40;;
73130;SDS011;64204;13.766;100.702;2022-12-04T13:47:28;7.43;;;4.93;;
73130;SDS011;64204;13.766;100.702;2022-12-04T13:52:51;8.60;;;4.65;;
73130;SDS011;64204;13.766;100.702;2022-12-04T13:58:26;8.20;;;4.90;;
73130;SDS011;64204;13.766;100.702;2022-12-04T14:01:03;10.40;;;5.97;;
73130;SDS011;64204;13.766;100.702;2022-12-04T14:03:51;9.98;;;5.00;;
73130;SDS011;64204;13.766;100.702;2022-12-04T14:21:41;12.40;;;6.15;;
73130;SDS011;64204;13.766;100.702;2022-12-04T14:24:19;11.50;;;5.70;;
73130;SDS011;64204;13.766;100.702;2022-12-04T14:30:38;8.70;;;5.25;;
73130;SDS011;64204;13.766;100.702;2022-12-04T14:37:03;10.75;;;6.38;;
73130;SDS011;64204;13.766;100.702;2022-12-04T14:39:50;14.00;;;6.50;;
73130;SDS011;64204;13.766;100.702;2022-12-04T14:52:14;9.00;;;5.35;;
73130;SDS011;64204;13.766;100.702;2022-12-04T14:58:19;10.70;;;6.97;;
73130;SDS011;64204;13.766;100.702;2022-12-04T15:01:04;12.52;;;7.32;;
73130;SDS011;64204;13.766;100.702;2022-12-04T15:10:48;14.90;;;8.18;;
73130;SDS011;64204;13.766;100.702;2022-12-04T15:13:43;14.50;;;7.32;;
73130;SDS011;64204;13.766;100.702;2022-12-04T15:19:26;11.10;;;6.30;;
73130;SDS011;64204;13.766;100.702;2022-12-04T15:22:02;18.42;;;9.50;;
73130;SDS011;64204;13.766;100.702;2022-12-04T15:24:42;14.68;;;8.75;;
73130;SDS011;64204;13.766;100.702;2022-12-04T15:27:09;17.60;;;9.20;;
73130;SDS011;64204;13.766;100.702;2022-12-04T15:29:38;12.25;;;7.18;;
73130;SDS011;64204;13.766;100.702;2022-12-04T15:34:55;16.55;;;8.95;;
73130;SDS011;64204;13.766;100.702;2022-12-04T15:37:38;15.30;;;8.85;;
73130;SDS011;64204;13.766;100.702;2022-12-04T15:44:02;18.67;;;9.75;;
73130;SDS011;64204;13.766;100.702;2022-12-04T15:46:57;16.40;;;9.07;;
73130;SDS011;64204;13.766;100.702;2022-12-04T15:49:47;12.95;;;8.93;;
73130;SDS011;64204;13.766;100.702;2022-12-04T15:52:22;16.55;;;9.93;;
73130;SDS011;64204;13.766;100.702;2022-12-04T15:57:17;19.80;;;9.80;;
73130;SDS011;64204;13.766;100.702;2022-12-04T15:59:54;18.17;;;11.13;;
73130;SDS011;64204;13.766;100.702;2022-12-04T16:02:29;18.25;;;10.60;;
73130;SDS011;64204;13.766;100.702;2022-12-04T16:14:27;17.63;;;9.70;;
73130;SDS011;64204;13.766;100.702;2022-12-04T16:17:07;17.25;;;10.23;;
73130;SDS011;64204;13.766;100.702;2022-12-04T16:19:51;17.98;;;10.15;;
73130;SDS011;64204;13.766;100.702;2022-12-04T16:22:24;16.80;;;10.18;;
73130;SDS011;64204;13.766;100.702;2022-12-04T16:24:53;20.98;;;11.30;;
73130;SDS011;64204;13.766;100.702;2022-12-04T16:27:22;16.52;;;11.02;;
73130;SDS011;64204;13.766;100.702;2022-12-04T16:29:54;18.02;;;9.98;;
73130;SDS011;64204;13.766;100.702;2022-12-04T16:32:25;16.15;;;9.50;;
73130;SDS011;64204;13.766;100.702;2022-12-04T16:34:55;15.70;;;9.77;;
73130;SDS011;64204;13.766;100.702;2022-12-04T16:37:38;22.05;;;11.50;;
73130;SDS011;64204;13.766;100.702;2022-12-04T16:40:38;19.33;;;11.73;;
73130;SDS011;64204;13.766;100.702;2022-12-04T16:42:57;19.35;;;10.23;;
73130;SDS011;64204;13.766;100.702;2022-12-04T16:45:33;14.80;;;9.80;;
73130;SDS011;64204;13.766;100.702;2022-12-04T16:48:00;16.33;;;8.88;;
73130;SDS011;64204;13.766;100.702;2022-12-04T16:50:27;15.98;;;9.80;;
73130;SDS011;64204;13.766;100.702;2022-12-04T16:52:53;22.48;;;11.45;;
73130;SDS011;64204;13.766;100.702;2022-12-04T16:55:36;14.32;;;9.93;;
73130;SDS011;64204;13.766;100.702;2022-12-04T16:58:25;18.60;;;9.85;;
73130;SDS011;64204;13.766;100.702;2022-12-04T17:00:53;16.15;;;9.20;;
73130;SDS011;64204;13.766;100.702;2022-12-04T17:03:23;15.02;;;8.93;;
73130;SDS011;64204;13.766;100.702;2022-12-04T17:05:55;18.05;;;9.25;;
73130;SDS011;64204;13.766;100.702;2022-12-04T17:08:25;15.05;;;9.68;;
73130;SDS011;64204;13.766;100.702;2022-12-04T17:10:52;15.18;;;8.68;;
73130;SDS011;64204;13.766;100.702;2022-12-04T17:13:19;15.70;;;8.45;;
73130;SDS011;64204;13.766;100.702;2022-12-04T17:15:47;14.63;;;8.30;;
73130;SDS011;64204;13.766;100.702;2022-12-04T17:18:14;15.52;;;8.32;;
73130;SDS011;64204;13.766;100.702;2022-12-04T17:20:44;16.58;;;9.50;;
73130;SDS011;64204;13.766;100.702;2022-12-04T17:23:11;13.35;;;8.98;;
73130;SDS011;64204;13.766;100.702;2022-12-04T17:25:41;20.88;;;11.38;;
73130;SDS011;64204;13.766;100.702;2022-12-04T17:28:10;21.15;;;11.32;;
73130;SDS011;64204;13.766;100.702;2022-12-04T17:33:11;19.45;;;11.57;;
73130;SDS011;64204;13.766;100.702;2022-12-04T17:35:41;15.75;;;10.65;;
73130;SDS011;64204;13.766;100.702;2022-12-04T17:38:08;20.08;;;11.85;;
73130;SDS011;64204;13.766;100.702;2022-12-04T17:40:35;21.33;;;12.27;;
73130;SDS011;64204;13.766;100.702;2022-12-04T17:43:02;18.33;;;11.32;;
73130;SDS011;64204;13.766;100.702;2022-12-04T17:45:29;20.67;;;10.93;;
73130;SDS011;64204;13.766;100.702;2022-12-04T17:47:57;20.52;;;10.52;;
73130;SDS011;64204;13.766;100.702;2022-12-04T17:50:25;16.10;;;10.32;;
73130;SDS011;64204;13.766;100.702;2022-12-04T17:52:52;20.48;;;12.48;;
73130;SDS011;64204;13.766;100.702;2022-12-04T17:55:18;17.65;;;10.45;;
73130;SDS011;64204;13.766;100.702;2022-12-04T17:57:45;20.75;;;13.23;;
73130;SDS011;64204;13.766;100.702;2022-12-04T18:00:12;20.25;;;12.55;;
73130;SDS011;64204;13.766;100.702;2022-12-04T18:02:39;18.95;;;11.32;;
73130;SDS011;64204;13.766;100.702;2022-12-04T18:05:07;20.25;;;12.23;;
73130;SDS011;64204;13.766;100.702;2022-12-04T18:07:34;18.17;;;11.52;;
73130;SDS011;64204;13.766;100.702;2022-12-04T18:10:01;13.27;;;9.77;;
73130;SDS011;64204;13.766;100.702;2022-12-04T18:12:28;17.38;;;11.30;;
73130;SDS011;64204;13.766;100.702;2022-12-04T18:14:54;25.55;;;13.85;;
73130;SDS011;64204;13.766;100.702;2022-12-04T18:17:21;20.85;;;12.63;;
73130;SDS011;64204;13.766;100.702;2022-12-04T18:19:48;18.15;;;11.52;;
73130;SDS011;64204;13.766;100.702;2022-12-04T18:22:20;17.50;;;11.13;;
73130;SDS011;64204;13.766;100.702;2022-12-04T18:24:49;18.48;;;10.80;;
73130;SDS011;64204;13.766;100.702;2022-12-04T18:27:17;23.75;;;13.82;;
73130;SDS011;64204;13.766;100.702;2022-12-04T18:29:43;19.13;;;12.75;;
73130;SDS011;64204;13.766;100.702;2022-12-04T18:32:10;21.67;;;13.65;;